createdAt,value
2018-03-14T01:49:38.325Z,58.10
2018-03-14T01:52:17.012Z,58.00
2018-03-14T02:00:58.040Z,57.20
2018-03-14T02:11:59.063Z,59.50
2018-03-14T02:28:54.344Z,59.30
2018-03-14T02:51:24.448Z,60.70
2018-03-14T03:21:55.361Z,60.80
2018-03-14T03:29:56.627Z,58.90
2018-03-14T03:32:45.031Z,58.40
2018-03-14T03:35:29.638Z,58.60
2018-03-14T03:38:24.270Z,59.30
2018-03-14T03:46:42.647Z,60.40
2018-03-14T03:49:31.982Z,63.60
2018-03-14T03:52:11.102Z,62.90
2018-03-14T04:00:35.141Z,59.90
2018-03-14T04:09:23.284Z,63.00
2018-03-14T04:17:39.669Z,59.10
2018-03-14T04:20:18.032Z,59.00
2018-03-14T04:23:03.038Z,59.60
2018-03-14T04:25:40.362Z,59.60
2018-03-14T04:31:40.493Z,61.10
2018-03-14T04:53:06.175Z,61.80
2018-03-14T05:06:04.942Z,63.90
2018-03-14T05:23:47.803Z,61.10
2018-03-14T05:26:21.921Z,63.80
2018-03-14T05:28:56.023Z,61.90
2018-03-14T16:25:55.021Z,32.60
2018-03-14T16:41:02.683Z,33.10
2018-03-14T16:52:12.081Z,33.10
2018-03-14T20:25:36.715Z,55.60
2018-03-14T20:28:06.473Z,56.20
2018-03-14T20:30:35.501Z,56.10
2018-03-14T20:33:04.575Z,56.10
2018-03-14T20:35:34.062Z,56.00
2018-03-14T20:38:01.565Z,56.10
2018-03-14T20:40:31.024Z,55.80
2018-03-14T20:43:01.594Z,54.70
2018-03-14T20:45:30.537Z,54.60
2018-03-14T20:47:59.527Z,54.60
2018-03-14T20:50:31.067Z,54.90
2018-03-14T20:53:00.017Z,55.00
2018-03-14T20:55:29.622Z,54.70
2018-03-14T20:57:57.341Z,55.00
2018-03-14T21:00:28.012Z,54.80
2018-03-14T21:02:58.547Z,54.90
2018-03-14T21:05:27.997Z,54.50
2018-03-14T21:07:57.518Z,54.40
2018-03-14T21:10:26.192Z,54.40
2018-03-14T21:15:39.387Z,54.30
2018-03-14T21:18:15.294Z,53.70
2018-03-14T21:20:46.698Z,53.70
2018-03-14T21:23:16.730Z,54.50
2018-03-14T21:25:51.746Z,53.90
2018-03-14T21:28:22.723Z,53.20
2018-03-14T21:30:52.168Z,52.90
2018-03-14T21:33:24.407Z,54.30
2018-03-14T21:35:59.560Z,54.30
2018-03-14T21:38:37.896Z,54.60
2018-03-14T21:41:07.235Z,55.40
2018-03-14T21:43:38.935Z,56.00
2018-03-14T21:46:08.294Z,55.50
2018-03-14T21:48:52.626Z,54.90
2018-03-14T21:51:24.532Z,55.70
2018-03-14T21:53:54.028Z,55.70
2018-03-14T21:56:24.274Z,55.00
2018-03-14T21:58:52.676Z,55.50
2018-03-14T22:01:21.526Z,56.00
2018-03-14T22:03:53.284Z,55.50
2018-03-14T22:06:24.689Z,55.50
2018-03-14T22:08:54.734Z,55.50
2018-03-14T22:11:25.647Z,55.20
2018-03-14T22:13:54.444Z,55.60
2018-03-14T22:16:24.845Z,54.50
2018-03-14T22:18:54.398Z,53.60
2018-03-14T22:21:27.730Z,52.90
2018-03-14T22:23:55.657Z,53.90
2018-03-14T22:26:25.469Z,53.90
2018-03-14T22:28:54.233Z,54.20
2018-03-14T22:31:32.843Z,54.70
2018-03-14T22:34:07.327Z,54.70
2018-03-14T22:36:37.951Z,55.40
2018-03-14T22:39:06.831Z,55.40
2018-03-14T22:41:34.619Z,55.90
2018-03-14T22:44:05.492Z,55.80
2018-03-14T22:46:36.204Z,55.80
2018-03-14T22:49:04.566Z,55.90
2018-03-14T22:51:40.442Z,56.70
2018-03-14T22:54:12.215Z,56.40
2018-03-14T22:56:42.101Z,56.80
2018-03-14T22:59:10.883Z,56.80
2018-03-14T23:01:39.110Z,56.10
2018-03-14T23:04:09.818Z,56.10
2018-03-14T23:06:41.351Z,55.10
2018-03-14T23:09:10.199Z,54.90
2018-03-14T23:11:40.318Z,54.90
2018-03-14T23:14:09.697Z,55.20
2018-03-14T23:16:39.710Z,55.80
2018-03-14T23:19:16.513Z,55.70
2018-03-14T23:21:50.788Z,55.30
2018-03-14T23:24:20.508Z,54.50
2018-03-14T23:26:56.691Z,54.20
2018-03-14T23:29:31.115Z,54.10
2018-03-14T23:32:02.831Z,54.20
2018-03-14T23:34:31.524Z,54.20
2018-03-14T23:37:00.756Z,54.40
2018-03-14T23:39:36.915Z,53.10
2018-03-14T23:42:06.283Z,53.00
2018-03-14T23:44:36.611Z,52.70
2018-03-14T23:47:06.509Z,52.70
2018-03-14T23:49:40.221Z,52.90
2018-03-14T23:52:12.940Z,52.90
2018-03-14T23:54:43.943Z,53.30
2018-03-14T23:57:13.420Z,53.90
2018-03-14T23:59:41.819Z,53.90
